Mustafa Sofuoglu — TCOJ7 — position and weather

sailwx.info

Track history (hours):
 
Tides and Currents Weather Stations Pressure Air Temp Water Temp Dewpoint Dewpoint Depression Visibility Wind Speed Wind Dir Waves Ship Positions

Mustafa Sofuoglu

Last reported at 2016-Jun-28 02:33 UTC. Time now 2016-Jun-30 19:37 UTC.
Position N 39°23' E 024°51'.

Length 106 m; draft 6.9 m.

Type: Cargo ship. MMSI: 271000831.

Date/timePositionNaut miles runAvg speedWind from/ knotsBaromVisibWave heightAir tempDewpointWater temp
2016-Jun-28 02:33N 39°23' E 024°51'5012.5
2016-Jun-27 22:33N 39°51' E 025°44'418 9.7
2016-Jun-26 03:30N 45°47' E 030°43'1112.2
2016-Jun-26 02:33N 45°58' E 030°48'1212.4
2016-Jun-26 01:33N 46°10' E 030°52'1212.2
2016-Jun-26 00:33N 46°22' E 030°55'1111.1
2016-Jun-25 23:33N 46°33' E 030°59'1110.6
2016-Jun-25 22:33N 46°35' E 031°14'1111.4
2016-Jun-25 21:33N 46°35' E 031°31'1111.2
2016-Jun-25 20:33N 46°36' E 031°47'10 9.8
2016-Jun-25 19:32N 46°43' E 031°56'8 0.7
2016-Jun-25 07:32N 46°51' E 031°59'0 0.0
2016-Jun-25 06:32N 46°51' E 031°59'0 0.0
2016-Jun-25 05:32N 46°51' E 031°59'0 0.0
2016-Jun-25 04:32N 46°51' E 031°59'0 0.0
2016-Jun-25 03:32N 46°51' E 031°59'0 0.0
2016-Jun-25 02:32N 46°51' E 031°59'0 0.0
2016-Jun-25 01:32N 46°51' E 031°59'0 0.0
2016-Jun-25 00:32N 46°51' E 031°59'0 0.1
2016-Jun-24 23:32N 46°51' E 031°59'0 0.0
2016-Jun-24 22:32N 46°51' E 031°59'0 0.0
2016-Jun-24 21:32N 46°51' E 031°59'0 0.0
2016-Jun-24 20:32N 46°51' E 031°59'0 0.0
2016-Jun-24 19:32N 46°51' E 031°59'0 0.0
2016-Jun-24 18:32N 46°51' E 031°59'0 0.0
2016-Jun-24 17:32N 46°51' E 031°59'0 0.0
2016-Jun-24 16:32N 46°51' E 031°59'0 0.0
2016-Jun-24 15:32N 46°51' E 031°59'0 0.0
2016-Jun-24 14:32N 46°51' E 031°59'1 1.2
2016-Jun-24 13:33N 46°51' E 031°57'9 8.9
2016-Jun-24 12:33N 46°42' E 031°56'1210.4
2016-Jun-24 11:27N 46°36' E 031°42'1311.4
2016-Jun-24 10:19N 46°35' E 031°23'1012.8
2016-Jun-24 09:33N 46°35' E 031°09'9 9.5
2016-Jun-24 08:33N 46°31' E 030°57'8 8.0
2016-Jun-24 07:33N 46°23' E 030°58'3 1.1
2016-Jun-24 04:31N 46°21' E 031°03'0 0.0
2016-Jun-24 03:31N 46°21' E 031°03'0 0.0
2016-Jun-24 02:31N 46°21' E 031°03'0 0.0
2016-Jun-24 01:31N 46°21' E 031°03'0 0.0
2016-Jun-24 00:31N 46°21' E 031°03'0 0.0
2016-Jun-23 23:31N 46°21' E 031°03'0 0.0
2016-Jun-23 22:31N 46°21' E 031°03'0 0.0
2016-Jun-23 21:31N 46°21' E 031°03'0 0.0
2016-Jun-23 20:28N 46°21' E 031°03'0 0.0
2016-Jun-23 19:31N 46°21' E 031°03'0 0.0
2016-Jun-23 18:31N 46°21' E 031°03'0 0.0
2016-Jun-23 17:31N 46°21' E 031°03'0 0.0
2016-Jun-23 16:31N 46°21' E 031°03'0 0.0
2016-Jun-23 15:31N 46°21' E 031°03'0 0.0
2016-Jun-23 14:31N 46°21' E 031°03'0 0.0
2016-Jun-23 13:28N 46°21' E 031°03'0 0.0
2016-Jun-23 12:31N 46°21' E 031°03'0 0.0
2016-Jun-23 11:31N 46°21' E 031°03'5 5.7
2016-Jun-23 10:33N 46°16' E 030°60'1212.0
2016-Jun-23 09:33N 46°06' E 030°51'1311.7
2016-Jun-23 08:26N 45°55' E 030°41'6911.6
2016-Jun-23 02:32N 44°52' E 030°01'  
Track history (hours):
 
Tides and Currents Weather Stations Pressure Air Temp Water Temp Dewpoint Dewpoint Depression Visibility Wind Speed Wind Dir Waves Ship Positions

Mustafa Sofuoglu

Last reported at 2016-Jun-28 02:33 UTC. Time now 2016-Jun-30 19:37 UTC.
Position N 39°23' E 024°51'.

Length 106 m; draft 6.9 m.

Type: Cargo ship. MMSI: 271000831.

Date/timePositionNaut miles runAvg speedWind from/ knotsBaromVisibWave heightAir tempDewpointWater temp
2016-Jun-28 02:33N 39°23' E 024°51'5012.5
2016-Jun-27 22:33N 39°51' E 025°44'418 9.7
2016-Jun-26 03:30N 45°47' E 030°43'1112.2
2016-Jun-26 02:33N 45°58' E 030°48'1212.4
2016-Jun-26 01:33N 46°10' E 030°52'1212.2
2016-Jun-26 00:33N 46°22' E 030°55'1111.1
2016-Jun-25 23:33N 46°33' E 030°59'1110.6
2016-Jun-25 22:33N 46°35' E 031°14'1111.4
2016-Jun-25 21:33N 46°35' E 031°31'1111.2
2016-Jun-25 20:33N 46°36' E 031°47'10 9.8
2016-Jun-25 19:32N 46°43' E 031°56'8 0.7
2016-Jun-25 07:32N 46°51' E 031°59'0 0.0
2016-Jun-25 06:32N 46°51' E 031°59'0 0.0
2016-Jun-25 05:32N 46°51' E 031°59'0 0.0
2016-Jun-25 04:32N 46°51' E 031°59'0 0.0
2016-Jun-25 03:32N 46°51' E 031°59'0 0.0
2016-Jun-25 02:32N 46°51' E 031°59'0 0.0
2016-Jun-25 01:32N 46°51' E 031°59'0 0.0
2016-Jun-25 00:32N 46°51' E 031°59'0 0.1
2016-Jun-24 23:32N 46°51' E 031°59'0 0.0
2016-Jun-24 22:32N 46°51' E 031°59'0 0.0
2016-Jun-24 21:32N 46°51' E 031°59'0 0.0
2016-Jun-24 20:32N 46°51' E 031°59'0 0.0
2016-Jun-24 19:32N 46°51' E 031°59'0 0.0
2016-Jun-24 18:32N 46°51' E 031°59'0 0.0
2016-Jun-24 17:32N 46°51' E 031°59'0 0.0
2016-Jun-24 16:32N 46°51' E 031°59'0 0.0
2016-Jun-24 15:32N 46°51' E 031°59'0 0.0
2016-Jun-24 14:32N 46°51' E 031°59'1 1.2
2016-Jun-24 13:33N 46°51' E 031°57'9 8.9
2016-Jun-24 12:33N 46°42' E 031°56'1210.4
2016-Jun-24 11:27N 46°36' E 031°42'1311.4
2016-Jun-24 10:19N 46°35' E 031°23'1012.8
2016-Jun-24 09:33N 46°35' E 031°09'9 9.5
2016-Jun-24 08:33N 46°31' E 030°57'8 8.0
2016-Jun-24 07:33N 46°23' E 030°58'3 1.1
2016-Jun-24 04:31N 46°21' E 031°03'0 0.0
2016-Jun-24 03:31N 46°21' E 031°03'0 0.0
2016-Jun-24 02:31N 46°21' E 031°03'0 0.0
2016-Jun-24 01:31N 46°21' E 031°03'0 0.0
2016-Jun-24 00:31N 46°21' E 031°03'0 0.0
2016-Jun-23 23:31N 46°21' E 031°03'0 0.0
2016-Jun-23 22:31N 46°21' E 031°03'0 0.0
2016-Jun-23 21:31N 46°21' E 031°03'0 0.0
2016-Jun-23 20:28N 46°21' E 031°03'0 0.0
2016-Jun-23 19:31N 46°21' E 031°03'0 0.0
2016-Jun-23 18:31N 46°21' E 031°03'0 0.0
2016-Jun-23 17:31N 46°21' E 031°03'0 0.0
2016-Jun-23 16:31N 46°21' E 031°03'0 0.0
2016-Jun-23 15:31N 46°21' E 031°03'0 0.0
2016-Jun-23 14:31N 46°21' E 031°03'0 0.0
2016-Jun-23 13:28N 46°21' E 031°03'0 0.0
2016-Jun-23 12:31N 46°21' E 031°03'0 0.0
2016-Jun-23 11:31N 46°21' E 031°03'5 5.7
2016-Jun-23 10:33N 46°16' E 030°60'1212.0
2016-Jun-23 09:33N 46°06' E 030°51'1311.7
2016-Jun-23 08:26N 45°55' E 030°41'6911.6
2016-Jun-23 02:32N 44°52' E 030°01'  

Dump ship's entire track history